createdAt,value
2023-09-26T00:00:27.803Z,99623.00
2023-09-26T00:02:55.536Z,99621.00
2023-09-26T00:05:25.244Z,99618.00
2023-09-26T00:07:52.868Z,99619.00
2023-09-26T00:10:21.579Z,99619.00
2023-09-26T00:12:49.951Z,99629.00
2023-09-26T00:15:17.171Z,99622.00
2023-09-26T00:17:44.846Z,99624.00
2023-09-26T00:20:16.954Z,99624.00
2023-09-26T00:22:44.413Z,99623.00
2023-09-26T00:25:14.339Z,99624.00
2023-09-26T00:27:41.203Z,99623.00
2023-09-26T00:30:11.783Z,99624.00
2023-09-26T00:32:39.932Z,99625.00
2023-09-26T00:35:10.205Z,99631.00
2023-09-26T00:37:37.324Z,99627.00
2023-09-26T00:40:05.238Z,99631.00
2023-09-26T00:42:32.178Z,99626.00
2023-09-26T00:44:59.031Z,99631.00
2023-09-26T00:47:26.050Z,99635.00
2023-09-26T00:49:53.025Z,99636.00
2023-09-26T00:52:20.400Z,99630.00
2023-09-26T00:54:47.503Z,99636.00
2023-09-26T00:57:14.561Z,99631.00
2023-09-26T00:59:41.600Z,99634.00
2023-09-26T01:02:09.433Z,99637.00
2023-09-26T01:04:37.281Z,99631.00
2023-09-26T01:07:04.220Z,99635.00
2023-09-26T01:09:31.176Z,99631.00
2023-09-26T01:11:58.594Z,99631.00
2023-09-26T01:14:25.977Z,99627.00
2023-09-26T01:16:57.099Z,99628.00
2023-09-26T01:19:24.205Z,99622.00
2023-09-26T01:21:51.203Z,99616.00
2023-09-26T01:24:18.728Z,99616.00
2023-09-26T01:26:46.142Z,99624.00
2023-09-26T01:29:13.554Z,99622.00
2023-09-26T01:31:40.937Z,99626.00
2023-09-26T01:34:09.277Z,99618.00
2023-09-26T01:36:36.607Z,99620.00
2023-09-26T01:39:03.940Z,99616.00
2023-09-26T01:41:31.759Z,99606.00
2023-09-26T01:43:59.261Z,99623.00
2023-09-26T01:46:27.229Z,99617.00
2023-09-26T01:48:54.589Z,99621.00
2023-09-26T01:51:22.213Z,99618.00
2023-09-26T01:53:49.815Z,99626.00
2023-09-26T01:56:17.057Z,99624.00
2023-09-26T01:58:44.152Z,99634.00
2023-09-26T02:01:11.395Z,99627.00
2023-09-26T02:03:38.594Z,99626.00
2023-09-26T02:06:06.142Z,99621.00
2023-09-26T02:08:33.589Z,99621.00
2023-09-26T02:11:00.926Z,99618.00
2023-09-26T02:13:28.053Z,99623.00
2023-09-26T02:15:56.009Z,99614.00
2023-09-26T02:18:23.422Z,99629.00
2023-09-26T02:20:50.737Z,99616.00
2023-09-26T02:23:17.853Z,99611.00
2023-09-26T02:25:54.017Z,99621.00
2023-09-26T02:28:21.753Z,99626.00
2023-09-26T02:30:49.365Z,99626.00
2023-09-26T02:33:17.005Z,99620.00
2023-09-26T02:35:44.076Z,99618.00
2023-09-26T02:38:11.309Z,99617.00
2023-09-26T02:40:38.433Z,99613.00
2023-09-26T02:43:05.590Z,99606.00
2023-09-26T02:45:32.667Z,99603.00
2023-09-26T02:48:01.191Z,99594.00
2023-09-26T02:50:28.547Z,99601.00
2023-09-26T02:52:55.935Z,99599.00
2023-09-26T02:55:23.483Z,99604.00
2023-09-26T02:57:50.999Z,99597.00
2023-09-26T03:00:19.525Z,99596.00
2023-09-26T03:02:48.247Z,99602.00
2023-09-26T03:05:17.134Z,99602.00
2023-09-26T03:07:44.563Z,99587.00
2023-09-26T03:10:12.672Z,99587.00
2023-09-26T03:12:48.381Z,99588.00
2023-09-26T03:15:16.235Z,99591.00
2023-09-26T03:17:43.423Z,99589.00
2023-09-26T03:20:12.054Z,99588.00
2023-09-26T03:22:39.441Z,99591.00
2023-09-26T03:25:07.460Z,99580.00
2023-09-26T03:27:34.855Z,99590.00
2023-09-26T03:30:02.415Z,99588.00
2023-09-26T03:32:29.838Z,99587.00
2023-09-26T03:34:57.141Z,99582.00
2023-09-26T03:37:24.817Z,99583.00
2023-09-26T03:39:52.286Z,99583.00
2023-09-26T03:42:19.713Z,99593.00
2023-09-26T03:44:46.986Z,99593.00
2023-09-26T03:47:15.402Z,99587.00
2023-09-26T03:49:43.025Z,99601.00
2023-09-26T03:52:10.560Z,99602.00
2023-09-26T03:54:38.502Z,99607.00
2023-09-26T03:57:05.982Z,99600.00
2023-09-26T03:59:34.423Z,99589.00
2023-09-26T04:02:02.322Z,99592.00
2023-09-26T04:04:32.913Z,99592.00
2023-09-26T04:07:00.404Z,99594.00
2023-09-26T04:09:27.660Z,99599.00
2023-09-26T04:11:55.281Z,99596.00
2023-09-26T04:14:22.510Z,99593.00
2023-09-26T04:16:49.724Z,99607.00
2023-09-26T04:19:17.031Z,99594.00
2023-09-26T04:21:44.309Z,99595.00
2023-09-26T04:24:11.875Z,99591.00
2023-09-26T04:26:38.909Z,99593.00
2023-09-26T04:29:06.648Z,99593.00
2023-09-26T04:31:33.888Z,99590.00
2023-09-26T04:34:01.223Z,99587.00
2023-09-26T04:36:30.985Z,99578.00
2023-09-26T04:38:58.656Z,99591.00
2023-09-26T04:41:25.736Z,99579.00
2023-09-26T04:43:53.039Z,99588.00
2023-09-26T04:46:20.504Z,99574.00
2023-09-26T04:48:48.007Z,99568.00
2023-09-26T04:51:16.619Z,99565.00
2023-09-26T04:53:44.169Z,99565.00
2023-09-26T04:56:11.546Z,99565.00
2023-09-26T04:58:39.498Z,99563.00
2023-09-26T05:01:17.233Z,99570.00
2023-09-26T05:03:45.851Z,99566.00
2023-09-26T05:06:14.708Z,99579.00
2023-09-26T05:08:42.437Z,99578.00
2023-09-26T05:11:16.551Z,99565.00
2023-09-26T05:13:45.268Z,99570.00
2023-09-26T05:16:14.942Z,99565.00
2023-09-26T05:18:42.818Z,99574.00
2023-09-26T05:21:11.238Z,99569.00
2023-09-26T05:23:38.800Z,99570.00
2023-09-26T05:26:09.072Z,99570.00
2023-09-26T05:28:36.633Z,99563.00
2023-09-26T05:31:04.167Z,99565.00
2023-09-26T05:33:31.861Z,99571.00
2023-09-26T05:35:59.155Z,99572.00
2023-09-26T05:38:29.807Z,99577.00
2023-09-26T05:40:57.045Z,99584.00
2023-09-26T05:43:24.585Z,99577.00
2023-09-26T05:45:55.157Z,99585.00
2023-09-26T05:48:22.948Z,99582.00
2023-09-26T05:50:50.217Z,99578.00
2023-09-26T05:53:19.157Z,99581.00
2023-09-26T05:55:46.666Z,99573.00
2023-09-26T05:58:14.002Z,99579.00
2023-09-26T06:00:41.683Z,99576.00
2023-09-26T06:03:09.076Z,99576.00
2023-09-26T06:05:39.861Z,99569.00
2023-09-26T06:08:07.801Z,99586.00
2023-09-26T06:10:35.529Z,99587.00
2023-09-26T06:13:03.491Z,99574.00
2023-09-26T06:15:32.624Z,99589.00
2023-09-26T06:18:03.745Z,99587.00
2023-09-26T06:20:32.130Z,99585.00
2023-09-26T06:22:59.345Z,99589.00
2023-09-26T06:25:29.477Z,99600.00
2023-09-26T06:27:59.660Z,99597.00
2023-09-26T06:30:27.262Z,99592.00
2023-09-26T06:32:55.209Z,99587.00
2023-09-26T06:35:22.459Z,99595.00
2023-09-26T06:37:49.796Z,99589.00
2023-09-26T06:40:17.317Z,99595.00
2023-09-26T06:42:44.560Z,99592.00
2023-09-26T06:45:12.453Z,99599.00
2023-09-26T06:47:40.021Z,99604.00
2023-09-26T06:50:12.077Z,99605.00
2023-09-26T06:52:39.997Z,99601.00
2023-09-26T06:55:11.837Z,99597.00
2023-09-26T06:57:40.423Z,99598.00
2023-09-26T07:14:05.255Z,99600.00
2023-09-26T07:33:55.466Z,99604.00
2023-09-26T07:51:51.441Z,99617.00
2023-09-26T07:58:16.989Z,99608.00
2023-09-26T08:01:18.304Z,99610.00
2023-09-26T08:04:00.157Z,99599.00
2023-09-26T08:07:02.080Z,99610.00
2023-09-26T08:10:06.890Z,99603.00
2023-09-26T08:13:22.642Z,99603.00
2023-09-26T08:20:50.760Z,99601.00
2023-09-26T08:24:33.868Z,99602.00
2023-09-26T08:27:25.169Z,99611.00
2023-09-26T08:30:34.473Z,99615.00
2023-09-26T08:37:33.273Z,99602.00
2023-09-26T08:40:18.014Z,99597.00
2023-09-26T08:43:14.963Z,99597.00
2023-09-26T08:46:36.100Z,99592.00
2023-09-26T08:53:32.107Z,99584.00
2023-09-26T08:57:18.531Z,99584.00
2023-09-26T09:00:37.715Z,99589.00
2023-09-26T09:07:14.306Z,99574.00
2023-09-26T09:10:45.920Z,99584.00
2023-09-26T09:13:43.276Z,99578.00
2023-09-26T09:17:10.226Z,99577.00
2023-09-26T09:20:04.557Z,99579.00
2023-09-26T09:32:58.141Z,99573.00
2023-09-26T09:39:26.859Z,99571.00
2023-09-26T09:42:24.389Z,99553.00
2023-09-26T09:45:38.812Z,99565.00
2023-09-26T09:49:01.413Z,99554.00
2023-09-26T09:52:34.420Z,99551.00
2023-09-26T10:02:29.358Z,99539.00
2023-09-26T10:05:30.408Z,99537.00
2023-09-26T10:21:07.314Z,99524.00
2023-09-26T10:38:42.780Z,99510.00
2023-09-26T10:41:21.996Z,99501.00
2023-09-26T10:44:49.369Z,99507.00
2023-09-26T10:48:17.432Z,99499.00
2023-09-26T10:51:46.695Z,99505.00
2023-09-26T11:02:50.885Z,99498.00
2023-09-26T11:11:02.278Z,99496.00
2023-09-26T11:13:48.828Z,99497.00
2023-09-26T11:17:06.129Z,99501.00
2023-09-26T11:20:00.849Z,99495.00
2023-09-26T11:23:01.496Z,99492.00
2023-09-26T11:30:11.749Z,99477.00
2023-09-26T11:41:50.959Z,99466.00
2023-09-26T12:00:27.255Z,99452.00
2023-09-26T12:03:29.398Z,99448.00
2023-09-26T12:06:32.982Z,99447.00
2023-09-26T12:13:00.027Z,99442.00
2023-09-26T12:26:30.692Z,99427.00
2023-09-26T12:37:10.199Z,99417.00
2023-09-26T12:52:12.240Z,99415.00
2023-09-26T13:16:33.051Z,99409.00
2023-09-26T13:23:16.340Z,99406.00
2023-09-26T13:26:04.718Z,99408.00
2023-09-26T13:41:03.380Z,99397.00
2023-09-26T13:47:40.413Z,99400.00
2023-09-26T13:50:55.414Z,99395.00
2023-09-26T14:07:28.863Z,99386.00
2023-09-26T14:10:10.688Z,99395.00
2023-09-26T14:13:10.609Z,99393.00
2023-09-26T14:16:44.024Z,99390.00
2023-09-26T14:20:05.643Z,99392.00
2023-09-26T14:23:01.564Z,99389.00
2023-09-26T14:26:52.841Z,99393.00
2023-09-26T14:33:45.545Z,99391.00
2023-09-26T14:51:45.910Z,99398.00
2023-09-26T14:54:47.745Z,99391.00
2023-09-26T15:04:26.323Z,99391.00
2023-09-26T15:07:27.788Z,99392.00
2023-09-26T15:14:21.457Z,99389.00
2023-09-26T15:24:48.097Z,99389.00
2023-09-26T15:44:25.419Z,99384.00
2023-09-26T15:55:18.510Z,99390.00
2023-09-26T15:58:40.180Z,99382.00
2023-09-26T16:05:35.445Z,99388.00
2023-09-26T16:08:35.188Z,99382.00
2023-09-26T16:20:47.616Z,99382.00
2023-09-26T16:23:35.104Z,99384.00
2023-09-26T16:27:39.554Z,99387.00
2023-09-26T16:29:13.109Z,99393.00
2023-09-26T16:32:25.552Z,99400.00
2023-09-26T16:36:10.136Z,99403.00
2023-09-26T16:42:03.688Z,99411.00
2023-09-26T16:45:27.479Z,99408.00
2023-09-26T16:48:15.186Z,99421.00
2023-09-26T16:51:00.922Z,99424.00
2023-09-26T16:53:49.693Z,99421.00
2023-09-26T16:56:44.401Z,99428.00
2023-09-26T16:59:19.740Z,99430.00
2023-09-26T17:02:16.556Z,99418.00
2023-09-26T17:11:28.409Z,99422.00
2023-09-26T17:14:13.852Z,99433.00
2023-09-26T17:17:17.857Z,99438.00
2023-09-26T17:20:16.599Z,99427.00
2023-09-26T17:23:17.404Z,99422.00
2023-09-26T17:26:02.363Z,99431.00
2023-09-26T17:29:01.353Z,99441.00
2023-09-26T17:31:49.075Z,99435.00
2023-09-26T17:34:38.492Z,99444.00
2023-09-26T17:37:34.627Z,99444.00
2023-09-26T17:40:39.994Z,99449.00
2023-09-26T17:43:54.748Z,99455.00
2023-09-26T17:53:17.945Z,99450.00
2023-09-26T17:56:25.055Z,99454.00
2023-09-26T17:59:30.588Z,99453.00
2023-09-26T18:05:09.345Z,99453.00
2023-09-26T18:08:08.339Z,99458.00
2023-09-26T18:10:36.720Z,99466.00
2023-09-26T18:13:04.079Z,99467.00
2023-09-26T18:15:32.707Z,99466.00
2023-09-26T18:18:01.598Z,99468.00
2023-09-26T18:20:31.141Z,99474.00
2023-09-26T18:22:58.835Z,99471.00
2023-09-26T18:25:26.194Z,99478.00
2023-09-26T18:32:36.274Z,99477.00
2023-09-26T18:35:59.656Z,99474.00
2023-09-26T18:36:57.697Z,99478.00
2023-09-26T18:39:56.399Z,99479.00
2023-09-26T18:42:40.904Z,99484.00
2023-09-26T18:45:45.295Z,99492.00
2023-09-26T18:48:44.680Z,99497.00
2023-09-26T18:51:58.417Z,99493.00
2023-09-26T18:54:50.947Z,99503.00
2023-09-26T18:58:16.989Z,99508.00
2023-09-26T19:01:23.084Z,99504.00
2023-09-26T19:04:26.345Z,99502.00
2023-09-26T19:17:20.305Z,99512.00
2023-09-26T19:20:26.249Z,99497.00
2023-09-26T19:23:28.357Z,99509.00
2023-09-26T19:26:34.791Z,99514.00
2023-09-26T19:29:47.356Z,99509.00
2023-09-26T19:32:39.589Z,99511.00
2023-09-26T19:35:24.639Z,99516.00
2023-09-26T19:42:00.231Z,99521.00
2023-09-26T19:48:53.738Z,99523.00
2023-09-26T19:52:19.049Z,99516.00
2023-09-26T19:55:08.927Z,99516.00
2023-09-26T19:58:35.082Z,99518.00
2023-09-26T20:01:25.703Z,99515.00
2023-09-26T20:04:22.452Z,99509.00
2023-09-26T20:07:28.844Z,99513.00
2023-09-26T20:10:14.013Z,99517.00
2023-09-26T20:16:00.235Z,99514.00
2023-09-26T20:22:11.477Z,99516.00
2023-09-26T20:25:06.145Z,99519.00
2023-09-26T20:28:07.970Z,99519.00
2023-09-26T20:33:46.790Z,99508.00
2023-09-26T20:36:49.831Z,99527.00
2023-09-26T20:39:38.908Z,99516.00
2023-09-26T20:42:48.519Z,99519.00
2023-09-26T20:45:33.728Z,99521.00
2023-09-26T20:48:43.120Z,99518.00
2023-09-26T20:51:53.945Z,99510.00
2023-09-26T21:01:35.295Z,99513.00
2023-09-26T21:04:44.646Z,99521.00
2023-09-26T21:07:30.582Z,99513.00
2023-09-26T21:10:23.962Z,99500.00
2023-09-26T21:19:40.550Z,99512.00
2023-09-26T21:22:43.177Z,99503.00
2023-09-26T21:29:15.053Z,99502.00
2023-09-26T21:32:01.488Z,99512.00
2023-09-26T21:36:09.917Z,99521.00
2023-09-26T21:42:23.462Z,99531.00
2023-09-26T21:48:16.702Z,99510.00
2023-09-26T21:57:32.231Z,99516.00
2023-09-26T22:02:59.899Z,99523.00
2023-09-26T22:05:27.151Z,99506.00
2023-09-26T22:07:56.967Z,99512.00
2023-09-26T22:10:25.293Z,99521.00
2023-09-26T22:12:52.269Z,99509.00
2023-09-26T22:15:20.178Z,99509.00
2023-09-26T22:17:48.040Z,99498.00
2023-09-26T22:20:18.050Z,99490.00
2023-09-26T22:22:45.840Z,99484.00
2023-09-26T22:25:15.184Z,99484.00
2023-09-26T22:27:43.538Z,99492.00
2023-09-26T22:30:11.592Z,99494.00
2023-09-26T22:32:40.348Z,99490.00
2023-09-26T22:35:08.503Z,99489.00
2023-09-26T22:37:36.666Z,99478.00
2023-09-26T22:40:08.389Z,99478.00
2023-09-26T22:42:35.666Z,99484.00
2023-09-26T22:45:04.780Z,99484.00
2023-09-26T22:47:33.375Z,99479.00
2023-09-26T22:50:05.291Z,99475.00
2023-09-26T22:52:37.074Z,99476.00
2023-09-26T22:55:04.823Z,99463.00
2023-09-26T22:57:32.292Z,99468.00
2023-09-26T22:59:59.463Z,99465.00
2023-09-26T23:02:26.809Z,99466.00
2023-09-26T23:04:54.243Z,99472.00
2023-09-26T23:07:21.799Z,99474.00
2023-09-26T23:09:48.804Z,99479.00
2023-09-26T23:12:16.677Z,99477.00
2023-09-26T23:14:44.046Z,99491.00
2023-09-26T23:17:12.328Z,99497.00
2023-09-26T23:19:39.536Z,99484.00
2023-09-26T23:22:07.410Z,99490.00
2023-09-26T23:24:34.831Z,99486.00
2023-09-26T23:27:02.193Z,99485.00
2023-09-26T23:29:29.341Z,99492.00
2023-09-26T23:31:56.745Z,99486.00
2023-09-26T23:35:12.634Z,99498.00
2023-09-26T23:38:28.151Z,99496.00
2023-09-26T23:41:46.530Z,99499.00
2023-09-26T23:44:15.776Z,99503.00
2023-09-26T23:46:43.307Z,99482.00
2023-09-26T23:49:10.269Z,99487.00
2023-09-26T23:51:37.120Z,99501.00
2023-09-26T23:54:04.862Z,99496.00
2023-09-26T23:56:31.854Z,99507.00
2023-09-26T23:58:58.805Z,99513.00
